Time;durP1;ratioP1;P1;durP2;ratioP2;P2;SDS_P1;SDS_P2;PMS_P1;PMS_P2;Temp;Humidity;BMP_temperature;BMP_pressure;BME280_temperature;BME280_humidity;BME280_pressure;Samples;Min_cycle;Max_cycle;Signal;HPM_P1;HPM_P2
2023/03/01 00:01:01;;;;;;;15.02;13.38;;;0.90;99.90;;;;;;6057963;23;20297;-71
2023/03/01 00:03:28;;;;;;;14.55;12.93;;;0.90;99.90;;;;;;6058102;23;20194;-71
2023/03/01 00:05:55;;;;;;;16.55;14.85;;;0.90;99.90;;;;;;6057496;23;20227;-71
2023/03/01 00:08:24;;;;;;;16.95;14.68;;;0.90;99.90;;;;;;6068622;23;20196;-71
2023/03/01 00:11:01;;;;;;;15.43;13.77;;;0.80;99.90;;;;;;6049769;23;20224;-71
2023/03/01 00:13:28;;;;;;;16.13;13.40;;;0.80;99.90;;;;;;6055807;23;20193;-71
2023/03/01 00:15:55;;;;;;;18.42;14.13;;;0.70;99.90;;;;;;6058626;23;20213;-70
2023/03/01 00:18:22;;;;;;;14.60;12.57;;;0.70;99.90;;;;;;6060500;23;20204;-71
2023/03/01 00:20:51;;;;;;;16.38;14.15;;;0.60;99.90;;;;;;6058334;23;20294;-71
2023/03/01 00:23:18;;;;;;;16.23;13.65;;;0.60;99.90;;;;;;6058651;23;20193;-71
2023/03/01 00:25:47;;;;;;;15.80;13.70;;;0.50;99.90;;;;;;6059986;23;20225;-71
2023/03/01 00:28:14;;;;;;;16.08;13.25;;;0.50;99.90;;;;;;6057024;23;20212;-71
2023/03/01 00:30:41;;;;;;;17.90;14.38;;;0.50;99.90;;;;;;6055704;23;20305;-72
2023/03/01 00:33:08;;;;;;;19.77;15.85;;;0.50;99.90;;;;;;6055119;23;20272;-71
2023/03/01 00:35:36;;;;;;;15.40;13.85;;;0.50;99.90;;;;;;6059303;23;20213;-72
2023/03/01 00:38:04;;;;;;;16.42;13.80;;;0.50;99.90;;;;;;6061029;23;20198;-71
2023/03/01 00:40:33;;;;;;;16.70;14.95;;;0.60;99.90;;;;;;6058509;23;20220;-71
2023/03/01 00:43:02;;;;;;;16.30;14.55;;;0.60;99.90;;;;;;6071936;23;20226;-71
2023/03/01 00:45:30;;;;;;;16.58;14.30;;;0.60;99.90;;;;;;6057612;23;20209;-72
2023/03/01 00:47:57;;;;;;;16.55;14.38;;;0.60;99.90;;;;;;6059375;23;20585;-71
2023/03/01 00:50:25;;;;;;;15.85;13.75;;;0.60;99.90;;;;;;6056710;23;20735;-71
2023/03/01 00:52:54;;;;;;;16.90;14.45;;;0.50;99.90;;;;;;6060721;23;20189;-71
2023/03/01 00:55:21;;;;;;;16.33;14.52;;;0.50;99.90;;;;;;6058484;23;20193;-71
2023/03/01 00:57:48;;;;;;;15.02;13.43;;;0.50;99.90;;;;;;6063242;23;20279;-72
2023/03/01 01:00:18;;;;;;;16.05;14.10;;;0.50;99.90;;;;;;6055368;23;20220;-72
2023/03/01 01:02:45;;;;;;;16.25;14.05;;;0.50;99.90;;;;;;6059204;23;20190;-72
2023/03/01 01:05:12;;;;;;;15.43;13.77;;;0.50;99.90;;;;;;6059493;23;20225;-72
2023/03/01 01:07:39;;;;;;;16.13;14.43;;;0.40;99.90;;;;;;6058778;23;20515;-72
2023/03/01 01:10:07;;;;;;;15.98;13.82;;;0.40;99.90;;;;;;6058133;23;20283;-72
2023/03/01 01:12:35;;;;;;;16.90;14.00;;;0.40;99.90;;;;;;6056564;23;20208;-71
2023/03/01 01:15:02;;;;;;;18.67;15.50;;;0.40;99.90;;;;;;6056419;23;20255;-71
2023/03/01 01:17:30;;;;;;;16.15;14.45;;;0.40;99.90;;;;;;6057689;23;20232;-71
2023/03/01 01:19:57;;;;;;;17.13;14.90;;;0.30;99.90;;;;;;6047363;23;20200;-71
2023/03/01 01:22:24;;;;;;;18.40;13.60;;;0.30;99.90;;;;;;6057905;23;20271;-70
2023/03/01 01:24:51;;;;;;;16.40;14.10;;;0.30;99.90;;;;;;6059283;23;20201;-71
2023/03/01 01:27:18;;;;;;;17.20;15.38;;;0.30;99.90;;;;;;6058534;23;20216;-70
2023/03/01 01:29:45;;;;;;;18.60;14.15;;;0.30;99.90;;;;;;6049309;23;20224;-71
2023/03/01 01:32:12;;;;;;;18.02;14.25;;;0.30;99.90;;;;;;6055960;23;20610;-72
2023/03/01 01:34:40;;;;;;;16.65;13.88;;;0.30;99.90;;;;;;6056327;23;20278;-72
2023/03/01 01:37:07;;;;;;;17.58;14.40;;;0.30;99.90;;;;;;6059406;23;20736;-70
2023/03/01 01:39:35;;;;;;;19.80;15.73;;;0.30;99.90;;;;;;6058631;23;20197;-71
2023/03/01 01:42:02;;;;;;;16.90;15.10;;;0.20;99.90;;;;;;6059371;23;20293;-71
2023/03/01 01:44:30;;;;;;;17.02;14.82;;;0.20;99.90;;;;;;6062835;23;20272;-71
2023/03/01 01:47:00;;;;;;;17.17;14.48;;;0.20;99.90;;;;;;6046355;23;20216;-71
2023/03/01 01:49:32;;;;;;;18.20;13.88;;;0.20;99.90;;;;;;6062073;23;20380;-70
2023/03/01 01:52:05;;;;;;;17.73;15.80;;;0.10;99.90;;;;;;6051006;23;20196;-71
2023/03/01 01:54:45;;;;;;;17.67;14.80;;;0.20;99.90;;;;;;6045546;23;20197;-71
2023/03/01 01:57:16;;;;;;;18.50;14.68;;;0.20;99.90;;;;;;6057545;23;20214;-71
2023/03/01 01:59:48;;;;;;;16.65;14.95;;;0.10;99.90;;;;;;6058429;23;20215;-72
2023/03/01 02:02:15;;;;;;;17.15;15.07;;;0.20;99.90;;;;;;6060835;23;20803;-72
2023/03/01 02:04:43;;;;;;;20.23;15.63;;;0.20;99.90;;;;;;6057556;23;20276;-70
2023/03/01 02:07:16;;;;;;;17.33;15.05;;;0.10;99.90;;;;;;6058487;23;20223;-72
2023/03/01 02:09:46;;;;;;;16.10;13.75;;;0.20;99.90;;;;;;6047750;23;20608;-72
2023/03/01 02:12:14;;;;;;;16.98;14.50;;;0.20;99.90;;;;;;6059401;23;20311;-71
2023/03/01 02:14:41;;;;;;;16.50;14.73;;;0.30;99.90;;;;;;6056228;23;20721;-72
2023/03/01 02:17:08;;;;;;;19.00;15.45;;;0.30;99.90;;;;;;6058564;23;20240;-71
2023/03/01 02:19:48;;;;;;;17.50;14.23;;;0.30;99.90;;;;;;6055177;23;20646;-71
2023/03/01 02:22:24;;;;;;;17.20;15.15;;;0.30;99.90;;;;;;6052402;23;20226;-71
2023/03/01 02:25:02;;;;;;;15.90;14.30;;;0.30;99.90;;;;;;6057169;23;20278;-72
2023/03/01 02:27:37;;;;;;;16.70;14.73;;;0.40;99.90;;;;;;6051683;23;20727;-69
2023/03/01 02:30:07;;;;;;;17.55;15.60;;;0.50;99.90;;;;;;6058573;23;20211;-72
2023/03/01 02:32:35;;;;;;;18.48;14.98;;;0.50;99.90;;;;;;6058080;23;20197;-71
2023/03/01 02:35:06;;;;;;;20.15;15.20;;;0.50;99.90;;;;;;6055165;23;20231;-71
2023/03/01 02:37:36;;;;;;;17.02;14.90;;;0.50;99.90;;;;;;6058749;23;20282;-71
2023/03/01 02:40:07;;;;;;;17.67;14.98;;;0.50;99.90;;;;;;6056504;23;20201;-71
2023/03/01 02:42:46;;;;;;;17.92;14.52;;;0.50;99.90;;;;;;6059266;23;20227;-71
2023/03/01 02:45:14;;;;;;;19.00;16.20;;;0.50;99.90;;;;;;6058156;23;20272;-71
2023/03/01 02:47:41;;;;;;;18.00;14.98;;;0.50;99.90;;;;;;6058399;23;20284;-71
2023/03/01 02:50:19;;;;;;;17.73;15.60;;;0.50;99.90;;;;;;6057745;23;20199;-71
2023/03/01 02:52:54;;;;;;;17.25;14.23;;;0.50;99.90;;;;;;6058820;23;20212;-71
2023/03/01 02:55:21;;;;;;;18.15;14.82;;;0.60;99.90;;;;;;6059034;23;20218;-71
2023/03/01 02:57:50;;;;;;;17.00;15.02;;;0.60;99.90;;;;;;6060027;23;20591;-72
2023/03/01 03:00:22;;;;;;;18.65;15.63;;;0.70;99.90;;;;;;6062567;23;20198;-71
2023/03/01 03:02:51;;;;;;;17.05;15.07;;;0.70;99.90;;;;;;6051770;23;20221;-71
2023/03/01 03:05:21;;;;;;;18.83;15.52;;;0.70;99.90;;;;;;6065145;23;20218;-72
2023/03/01 03:07:49;;;;;;;16.98;14.65;;;0.80;99.90;;;;;;6060709;23;20280;-72
2023/03/01 03:10:20;;;;;;;16.80;15.07;;;0.80;99.90;;;;;;6061179;23;20583;-71
2023/03/01 03:12:50;;;;;;;17.15;14.18;;;0.80;99.90;;;;;;6050993;23;20547;-69
2023/03/01 03:15:20;;;;;;;17.02;14.82;;;0.90;99.90;;;;;;6058826;23;20213;-71
2023/03/01 03:17:47;;;;;;;19.45;15.20;;;0.90;99.90;;;;;;6057486;23;20273;-72
2023/03/01 03:20:18;;;;;;;18.75;16.15;;;0.90;99.90;;;;;;6056850;23;20203;-72
2023/03/01 03:22:46;;;;;;;17.45;14.85;;;0.70;99.90;;;;;;6060263;23;20226;-72
2023/03/01 03:25:14;;;;;;;17.55;15.57;;;1.00;99.90;;;;;;6072181;23;20229;-71
2023/03/01 03:27:42;;;;;;;17.50;15.30;;;1.00;99.90;;;;;;6062133;23;20276;-71
2023/03/01 03:30:12;;;;;;;18.70;14.82;;;1.00;99.90;;;;;;6059155;23;20198;-71
2023/03/01 03:32:41;;;;;;;16.92;14.90;;;1.00;99.90;;;;;;6050976;23;20209;-71
2023/03/01 03:35:10;;;;;;;18.48;15.13;;;1.00;99.90;;;;;;6054927;23;20200;-71
2023/03/01 03:40:22;;;;;;;19.95;16.10;;;1.00;99.90;;;;;;6062302;23;20204;-70
2023/03/01 03:42:49;;;;;;;15.80;14.10;;;1.10;99.90;;;;;;6048860;23;20824;-71
2023/03/01 03:45:16;;;;;;;16.58;14.63;;;1.10;99.90;;;;;;6059027;23;20308;-71
2023/03/01 03:47:45;;;;;;;18.23;15.68;;;1.10;99.90;;;;;;6059063;23;20284;-71
2023/03/01 03:50:14;;;;;;;18.20;16.02;;;1.10;99.90;;;;;;6059137;23;20289;-71
2023/03/01 03:52:41;;;;;;;17.45;15.30;;;1.10;99.90;;;;;;6061193;23;20227;-71
2023/03/01 03:55:10;;;;;;;17.88;15.30;;;1.20;99.90;;;;;;6065357;23;20315;-71
2023/03/01 03:57:37;;;;;;;16.60;14.73;;;1.20;99.90;;;;;;6053725;23;20208;-71
2023/03/01 04:00:12;;;;;;;16.35;14.60;;;1.20;99.90;;;;;;6052216;23;20198;-70
2023/03/01 04:02:40;;;;;;;17.65;15.77;;;1.20;99.90;;;;;;6055752;23;20229;-71
2023/03/01 04:05:10;;;;;;;16.08;14.07;;;1.20;99.90;;;;;;6055747;23;20216;-70
2023/03/01 04:07:37;;;;;;;16.33;13.70;;;1.20;99.90;;;;;;6060133;23;20196;-71
2023/03/01 04:10:06;;;;;;;17.00;15.07;;;1.20;99.90;;;;;;6053134;23;20201;-71
2023/03/01 04:12:34;;;;;;;19.17;15.50;;;1.20;99.90;;;;;;6047455;23;20233;-70
2023/03/01 04:15:01;;;;;;;18.55;16.20;;;1.20;99.90;;;;;;6057500;23;20232;-71
2023/03/01 04:17:28;;;;;;;17.20;15.40;;;1.20;99.90;;;;;;6064462;23;20754;-71
2023/03/01 04:19:55;;;;;;;16.45;14.50;;;1.20;99.90;;;;;;6059493;23;20550;-71
2023/03/01 04:22:29;;;;;;;16.70;15.00;;;1.20;99.90;;;;;;6058760;23;20232;-71
2023/03/01 04:24:56;;;;;;;20.40;16.42;;;1.20;99.90;;;;;;6062652;23;20209;-70
2023/03/01 04:27:23;;;;;;;17.40;15.50;;;1.20;99.90;;;;;;6060158;23;20240;-71
2023/03/01 04:29:51;;;;;;;16.92;15.10;;;1.20;99.90;;;;;;6057813;23;20692;-71
2023/03/01 04:32:18;;;;;;;17.48;15.02;;;1.30;99.90;;;;;;6060743;23;20189;-70
2023/03/01 04:34:45;;;;;;;18.73;16.73;;;1.30;99.90;;;;;;6049429;23;20194;-71
2023/03/01 04:37:12;;;;;;;17.40;14.85;;;1.30;99.90;;;;;;6067381;23;20224;-70
2023/03/01 04:39:45;;;;;;;17.42;15.50;;;1.40;99.90;;;;;;6057519;23;20273;-71
2023/03/01 04:42:12;;;;;;;17.52;14.88;;;1.40;99.90;;;;;;6058015;23;20272;-71
2023/03/01 04:44:39;;;;;;;17.00;15.30;;;1.30;99.90;;;;;;6062935;23;20218;-70
2023/03/01 04:47:06;;;;;;;18.88;16.23;;;1.30;99.90;;;;;;6060747;23;20211;-71
2023/03/01 04:49:33;;;;;;;20.15;16.30;;;1.40;99.90;;;;;;6058282;23;20280;-71
2023/03/01 04:52:01;;;;;;;17.60;15.02;;;1.30;99.90;;;;;;6055187;23;20272;-71
2023/03/01 04:54:28;;;;;;;16.48;14.70;;;1.20;99.90;;;;;;6060877;23;20189;-71
2023/03/01 04:56:57;;;;;;;18.00;15.63;;;1.10;99.90;;;;;;6060498;23;20219;-71
2023/03/01 04:59:25;;;;;;;16.77;15.00;;;1.10;99.90;;;;;;6059715;23;20195;-70
2023/03/01 05:01:52;;;;;;;17.70;15.55;;;1.10;99.90;;;;;;6048095;23;20699;-72
2023/03/01 05:04:19;;;;;;;17.40;15.60;;;1.10;99.90;;;;;;6059008;23;20191;-71
2023/03/01 05:06:46;;;;;;;19.20;16.05;;;1.20;99.90;;;;;;6059128;23;20693;-71
2023/03/01 05:09:13;;;;;;;16.40;14.68;;;1.20;99.90;;;;;;6059515;23;20274;-71
2023/03/01 05:11:40;;;;;;;16.67;14.98;;;1.30;99.90;;;;;;6055771;23;20295;-69
2023/03/01 05:14:10;;;;;;;17.10;15.40;;;1.30;99.90;;;;;;6063900;23;20590;-70
2023/03/01 05:16:37;;;;;;;17.40;15.45;;;1.30;99.90;;;;;;6054293;23;20823;-71
2023/03/01 05:19:11;;;;;;;17.98;15.80;;;1.40;99.90;;;;;;6056107;23;20296;-70
2023/03/01 05:22:01;;;;;;;17.08;15.25;;;1.40;99.90;;;;;;6042751;23;20584;-70
2023/03/01 05:24:26;;;;;;;19.60;16.73;;;1.40;99.90;;;;;;6053556;23;20247;-72
2023/03/01 05:26:54;;;;;;;17.25;15.40;;;1.40;99.90;;;;;;6057619;23;20689;-70
2023/03/01 05:29:25;;;;;;;18.60;15.35;;;1.40;99.90;;;;;;6061687;23;20198;-71
2023/03/01 05:31:54;;;;;;;17.92;15.30;;;1.50;99.90;;;;;;6060466;23;20547;-71
2023/03/01 05:34:25;;;;;;;19.70;15.85;;;1.50;99.90;;;;;;6057820;23;20311;-70
2023/03/01 05:36:52;;;;;;;17.33;15.45;;;1.50;99.90;;;;;;6054078;23;20223;-72
2023/03/01 05:39:22;;;;;;;18.60;15.18;;;1.50;99.90;;;;;;6036588;23;20660;-72
2023/03/01 05:41:52;;;;;;;16.95;15.25;;;1.50;99.90;;;;;;6049016;23;20308;-72
2023/03/01 05:44:20;;;;;;;17.23;14.95;;;1.50;99.90;;;;;;6048090;23;20194;-72
2023/03/01 05:46:49;;;;;;;17.70;15.90;;;1.60;99.90;;;;;;6053164;23;20257;-69
2023/03/01 05:49:16;;;;;;;18.83;16.83;;;1.60;99.90;;;;;;6054874;23;20727;-72
2023/03/01 05:51:47;;;;;;;18.73;16.58;;;1.60;99.90;;;;;;6059165;23;20190;-71
2023/03/01 05:54:15;;;;;;;19.00;17.00;;;1.60;99.90;;;;;;6054027;23;20266;-71
2023/03/01 05:56:43;;;;;;;17.98;16.00;;;1.60;99.90;;;;;;6054656;23;20212;-71
2023/03/01 05:59:10;;;;;;;21.83;19.63;;;1.60;99.90;;;;;;6054575;23;20201;-71
2023/03/01 06:01:37;;;;;;;21.23;19.13;;;1.70;99.90;;;;;;6054702;23;20707;-72
2023/03/01 06:04:06;;;;;;;21.27;19.15;;;1.70;99.90;;;;;;6051727;23;20245;-72
2023/03/01 06:06:37;;;;;;;18.67;16.67;;;1.70;99.90;;;;;;6046474;23;20290;-69
2023/03/01 06:09:04;;;;;;;18.85;16.95;;;1.60;99.90;;;;;;6055786;23;20568;-71
2023/03/01 06:11:31;;;;;;;20.08;18.05;;;1.60;99.90;;;;;;6050988;23;20210;-72
2023/03/01 06:13:58;;;;;;;19.02;17.02;;;1.60;99.90;;;;;;6049604;23;20222;-72
2023/03/01 06:16:25;;;;;;;18.58;16.35;;;1.60;99.90;;;;;;6056746;23;20678;-73
2023/03/01 06:18:52;;;;;;;21.80;17.77;;;1.60;99.90;;;;;;6056289;23;20813;-72
2023/03/01 06:21:21;;;;;;;18.00;16.20;;;1.60;99.90;;;;;;6049066;23;20188;-70
2023/03/01 06:23:48;;;;;;;18.38;16.40;;;1.60;99.90;;;;;;6058627;23;20213;-71
2023/03/01 06:26:15;;;;;;;19.70;17.60;;;1.60;99.90;;;;;;6057202;23;20307;-72
2023/03/01 06:28:42;;;;;;;19.17;15.90;;;1.60;99.90;;;;;;6054848;23;20190;-71
2023/03/01 06:31:09;;;;;;;22.63;18.02;;;1.60;99.90;;;;;;6057326;23;20242;-71
2023/03/01 06:33:36;;;;;;;23.08;19.00;;;1.60;99.90;;;;;;6059408;23;20195;-72
2023/03/01 06:36:04;;;;;;;18.95;15.98;;;1.60;99.90;;;;;;6058301;23;20204;-72
2023/03/01 06:38:32;;;;;;;19.90;17.80;;;1.60;99.90;;;;;;6048500;23;20188;-71
2023/03/01 06:40:59;;;;;;;18.58;16.40;;;1.70;99.90;;;;;;6054837;23;20682;-71
2023/03/01 06:43:26;;;;;;;19.77;17.67;;;1.70;99.90;;;;;;6053788;23;20249;-71
2023/03/01 06:45:53;;;;;;;19.05;16.88;;;1.80;99.90;;;;;;6050161;23;20222;-72
2023/03/01 06:48:20;;;;;;;17.90;16.10;;;1.80;99.90;;;;;;6057748;23;20194;-71
2023/03/01 06:50:47;;;;;;;19.13;15.73;;;1.80;99.90;;;;;;6059278;23;20286;-72
2023/03/01 06:53:14;;;;;;;19.42;16.65;;;1.80;99.90;;;;;;6054502;23;20196;-71
2023/03/01 06:55:42;;;;;;;18.30;16.05;;;1.70;99.90;;;;;;6052322;23;20212;-71
2023/03/01 06:58:10;;;;;;;21.50;16.95;;;1.70;99.90;;;;;;6055341;23;20273;-72
2023/03/01 07:00:37;;;;;;;22.13;16.77;;;1.70;99.90;;;;;;6055838;23;20200;-71
2023/03/01 07:03:04;;;;;;;18.85;16.65;;;1.70;99.90;;;;;;6056318;23;20263;-72
2023/03/01 07:05:31;;;;;;;18.73;16.73;;;1.80;99.90;;;;;;6043463;23;20297;-71
2023/03/01 07:07:59;;;;;;;23.63;17.88;;;1.80;99.90;;;;;;6059500;23;20198;-71
2023/03/01 07:10:26;;;;;;;19.35;15.65;;;1.80;99.90;;;;;;6059246;23;20195;-71
2023/03/01 07:12:56;;;;;;;21.10;17.42;;;1.80;99.90;;;;;;6060115;23;20228;-71
2023/03/01 07:15:24;;;;;;;19.42;17.33;;;1.80;99.90;;;;;;6058942;23;20213;-71
2023/03/01 07:17:51;;;;;;;20.38;16.30;;;1.80;99.90;;;;;;6058649;23;20648;-71
2023/03/01 07:20:18;;;;;;;19.30;17.20;;;1.90;99.90;;;;;;6060467;23;20189;-72
2023/03/01 07:22:46;;;;;;;19.25;16.48;;;1.90;99.90;;;;;;6058908;23;20241;-71
2023/03/01 07:25:13;;;;;;;18.75;16.38;;;1.90;99.90;;;;;;6059170;23;20354;-72
2023/03/01 07:27:40;;;;;;;21.35;18.00;;;2.00;99.90;;;;;;6060069;23;20706;-71
2023/03/01 07:30:11;;;;;;;18.15;16.20;;;2.00;99.90;;;;;;6059094;23;20194;-72
2023/03/01 07:32:37;;;;;;;18.90;16.90;;;2.20;99.90;;;;;;6058706;23;20192;-71
2023/03/01 07:35:05;;;;;;;24.92;17.30;;;2.30;99.90;;;;;;6059535;23;20248;-70
2023/03/01 07:37:32;;;;;;;22.02;15.93;;;2.40;99.90;;;;;;6046292;23;20229;-71
2023/03/01 07:39:59;;;;;;;19.85;17.70;;;2.40;99.90;;;;;;6058537;23;20253;-71
2023/03/01 07:42:26;;;;;;;18.98;17.00;;;2.50;99.90;;;;;;6059903;23;20802;-71
2023/03/01 07:44:53;;;;;;;24.40;19.05;;;2.60;99.90;;;;;;6059227;23;20291;-71
2023/03/01 07:47:22;;;;;;;26.67;20.00;;;2.70;99.90;;;;;;6060460;23;20275;-72
2023/03/01 07:49:49;;;;;;;20.63;17.63;;;2.90;99.90;;;;;;6059271;23;20200;-71
2023/03/01 07:52:16;;;;;;;20.90;17.52;;;3.10;99.90;;;;;;6058368;23;20258;-71
2023/03/01 07:54:44;;;;;;;20.40;18.30;;;3.20;99.90;;;;;;6059924;23;20689;-72
2023/03/01 07:57:11;;;;;;;18.50;16.60;;;3.50;99.90;;;;;;6058063;23;20196;-71
2023/03/01 07:59:39;;;;;;;20.42;18.30;;;3.50;99.90;;;;;;6058290;23;20193;-71
2023/03/01 08:02:06;;;;;;;18.92;16.98;;;3.70;99.90;;;;;;6059832;23;20239;-71
2023/03/01 08:04:35;;;;;;;21.50;16.90;;;3.90;99.90;;;;;;6054489;23;20199;-71
2023/03/01 08:07:02;;;;;;;22.70;17.23;;;4.10;99.90;;;;;;6049259;23;20193;-71
2023/03/01 08:09:29;;;;;;;22.70;18.40;;;4.30;99.90;;;;;;6060414;23;20284;-71
2023/03/01 08:11:59;;;;;;;19.00;17.02;;;4.50;99.90;;;;;;6059456;23;20200;-72
2023/03/01 08:14:26;;;;;;;21.38;17.92;;;4.80;99.90;;;;;;6058200;23;20222;-72
2023/03/01 08:16:53;;;;;;;17.40;15.57;;;4.90;99.90;;;;;;6049682;23;20228;-71
2023/03/01 08:19:20;;;;;;;18.48;16.58;;;5.20;99.90;;;;;;6046512;23;20197;-71
2023/03/01 08:21:49;;;;;;;17.33;15.70;;;5.40;99.90;;;;;;6058244;23;20267;-71
2023/03/01 08:24:16;;;;;;;18.40;16.52;;;5.60;99.90;;;;;;6052849;23;20222;-71
2023/03/01 08:26:43;;;;;;;17.70;15.95;;;5.80;99.90;;;;;;6059130;23;20298;-71
2023/03/01 08:29:10;;;;;;;17.60;15.90;;;6.00;99.90;;;;;;6061168;23;20195;-72
2023/03/01 08:31:40;;;;;;;19.20;17.40;;;6.20;99.90;;;;;;6060572;23;20602;-71
2023/03/01 08:34:09;;;;;;;18.67;16.77;;;6.40;99.90;;;;;;6058505;23;20375;-72
2023/03/01 08:36:42;;;;;;;18.10;16.33;;;6.10;99.90;;;;;;6048184;23;20191;-72
2023/03/01 08:39:12;;;;;;;18.40;16.58;;;6.30;99.90;;;;;;6060497;23;20190;-72
2023/03/01 08:41:39;;;;;;;18.20;16.40;;;6.40;99.90;;;;;;6060605;23;20655;-72
2023/03/01 08:44:06;;;;;;;18.38;16.48;;;6.50;99.90;;;;;;6059692;23;20300;-71
2023/03/01 08:46:35;;;;;;;18.48;16.70;;;6.70;99.90;;;;;;6060343;23;20318;-71
2023/03/01 08:49:05;;;;;;;17.80;16.10;;;7.00;99.90;;;;;;6060029;23;20279;-72
2023/03/01 08:51:36;;;;;;;19.40;17.48;;;7.30;99.90;;;;;;6060923;23;20192;-71
2023/03/01 08:54:03;;;;;;;18.30;16.60;;;7.60;99.90;;;;;;6059546;23;20196;-71
2023/03/01 08:56:31;;;;;;;19.85;17.85;;;7.80;98.80;;;;;;6060500;23;20601;-72
2023/03/01 08:58:59;;;;;;;18.23;16.50;;;8.00;98.70;;;;;;6061154;23;20716;-71
2023/03/01 09:01:26;;;;;;;18.15;16.38;;;8.40;98.10;;;;;;6046001;23;20489;-72
2023/03/01 09:03:53;;;;;;;17.75;15.95;;;8.80;97.80;;;;;;6059629;23;20350;-71
2023/03/01 09:06:20;;;;;;;18.83;16.88;;;8.90;96.20;;;;;;6061079;23;20603;-71
2023/03/01 09:08:50;;;;;;;18.65;16.95;;;8.30;96.20;;;;;;6057733;23;20197;-72
2023/03/01 09:11:18;;;;;;;17.85;16.15;;;8.40;96.80;;;;;;6061248;23;20221;-72
2023/03/01 09:13:47;;;;;;;18.45;16.67;;;8.60;96.60;;;;;;6059272;23;20280;-73
2023/03/01 09:16:17;;;;;;;19.08;17.30;;;9.30;95.90;;;;;;6058413;23;20267;-72
2023/03/01 09:18:45;;;;;;;19.92;17.92;;;9.80;94.80;;;;;;6061577;23;20665;-72
2023/03/01 09:21:15;;;;;;;18.37;16.40;;;10.10;93.60;;;;;;6060458;23;20225;-73
2023/03/01 09:23:43;;;;;;;19.27;17.58;;;10.40;92.90;;;;;;6053751;23;20472;-72
2023/03/01 09:26:13;;;;;;;19.00;17.20;;;10.70;92.20;;;;;;6060581;23;20299;-72
2023/03/01 09:28:40;;;;;;;18.57;16.90;;;11.00;91.30;;;;;;6060549;23;20463;-72
2023/03/01 09:31:09;;;;;;;17.90;16.17;;;11.30;91.00;;;;;;6060284;23;20436;-72
2023/03/01 09:33:36;;;;;;;19.20;17.50;;;11.60;90.30;;;;;;6059928;23;20932;-72
2023/03/01 09:36:05;;;;;;;17.17;15.67;;;11.80;88.20;;;;;;6059886;23;20485;-72
2023/03/01 09:38:32;;;;;;;17.97;16.37;;;11.90;87.40;;;;;;6059243;23;20552;-72
2023/03/01 09:41:00;;;;;;;18.83;17.13;;;12.10;86.30;;;;;;6060679;23;20518;-72
2023/03/01 09:43:32;;;;;;;19.03;17.43;;;12.20;83.50;;;;;;6058150;23;20572;-72
2023/03/01 09:46:04;;;;;;;18.47;16.60;;;12.10;84.40;;;;;;6053436;23;20470;-72
2023/03/01 09:48:44;;;;;;;18.80;17.07;;;12.20;83.80;;;;;;6060548;23;20794;-72
2023/03/01 09:51:18;;;;;;;19.60;17.70;;;12.30;83.00;;;;;;6060426;23;20445;-71
2023/03/01 09:53:45;;;;;;;18.50;16.60;;;12.50;81.30;;;;;;6058673;23;20857;-71
2023/03/01 09:56:20;;;;;;;19.87;17.77;;;12.30;80.60;;;;;;6060995;23;20504;-71
2023/03/01 09:58:54;;;;;;;19.30;17.43;;;12.30;81.80;;;;;;6059948;23;20477;-71
2023/03/01 10:01:31;;;;;;;18.80;17.10;;;12.50;80.90;;;;;;6059713;23;20856;-72
2023/03/01 10:04:27;;;;;;;19.20;17.37;;;12.70;80.50;;;;;;6056658;23;20474;-72
2023/03/01 10:07:03;;;;;;;18.73;17.03;;;12.60;79.40;;;;;;6050354;23;20521;-72
2023/03/01 10:09:34;;;;;;;19.00;17.23;;;12.80;78.80;;;;;;6060939;23;20467;-72
2023/03/01 10:12:03;;;;;;;18.03;16.47;;;12.90;77.60;;;;;;6050865;23;20638;-72
2023/03/01 10:14:36;;;;;;;18.63;16.93;;;13.10;77.80;;;;;;6058942;23;20455;-72
2023/03/01 10:17:05;;;;;;;19.10;17.20;;;13.10;77.10;;;;;;6060610;23;20792;-73
2023/03/01 10:19:39;;;;;;;17.40;15.90;;;13.40;76.70;;;;;;6059701;23;20559;-73
2023/03/01 10:22:14;;;;;;;18.83;17.10;;;13.70;75.60;;;;;;6035368;23;20470;-72
2023/03/01 10:24:41;;;;;;;18.40;16.90;;;13.50;73.20;;;;;;6046591;23;20477;-72
2023/03/01 10:27:15;;;;;;;17.63;16.03;;;12.40;74.60;;;;;;6059080;23;21011;-72
2023/03/01 10:29:49;;;;;;;17.97;16.27;;;12.00;76.50;;;;;;6059501;23;20536;-72
2023/03/01 10:32:17;;;;;;;18.17;16.57;;;12.20;76.60;;;;;;6059905;23;20529;-72
2023/03/01 10:34:46;;;;;;;18.50;16.90;;;12.30;76.20;;;;;;6059087;23;20470;-72
2023/03/01 10:37:15;;;;;;;18.30;16.60;;;12.40;76.60;;;;;;6060087;23;20443;-72
2023/03/01 10:40:07;;;;;;;18.40;16.77;;;12.70;75.60;;;;;;6060918;23;20444;-72
2023/03/01 10:42:37;;;;;;;18.43;16.67;;;12.50;74.60;;;;;;6054520;23;20459;-72
2023/03/01 10:45:24;;;;;;;17.77;16.17;;;11.80;75.90;;;;;;6058902;23;20477;-73
2023/03/01 10:48:04;;;;;;;18.40;16.80;;;12.30;76.60;;;;;;6060036;23;20448;-73
2023/03/01 10:50:33;;;;;;;17.50;16.00;;;12.90;75.60;;;;;;6059090;23;20500;-72
2023/03/01 10:53:02;;;;;;;17.90;16.30;;;13.70;75.40;;;;;;6059683;23;20585;-72
2023/03/01 10:55:35;;;;;;;17.07;15.60;;;13.90;72.80;;;;;;6058704;23;20810;-71
2023/03/01 10:58:17;;;;;;;16.73;15.33;;;14.30;72.90;;;;;;6059724;23;20443;-72
2023/03/01 11:00:50;;;;;;;17.13;15.63;;;14.60;71.70;;;;;;6048106;23;20489;-72
2023/03/01 11:03:21;;;;;;;18.63;17.07;;;15.00;71.90;;;;;;6057435;23;20502;-72
2023/03/01 11:05:56;;;;;;;17.67;16.13;;;15.50;70.00;;;;;;6059319;23;21092;-71
2023/03/01 11:08:41;;;;;;;17.40;15.83;;;15.90;67.70;;;;;;6060676;23;20470;-72
2023/03/01 11:11:31;;;;;;;17.10;15.70;;;16.10;68.00;;;;;;6046704;23;20436;-72
2023/03/01 11:14:00;;;;;;;17.87;16.37;;;16.40;66.70;;;;;;6058077;23;20526;-72
2023/03/01 11:16:31;;;;;;;18.00;16.50;;;16.80;65.00;;;;;;6058410;23;20435;-71
2023/03/01 11:19:19;;;;;;;17.30;15.80;;;16.70;63.00;;;;;;6059727;23;20538;-72
2023/03/01 11:21:56;;;;;;;17.70;16.20;;;15.90;64.40;;;;;;6036655;23;20440;-71
2023/03/01 11:24:30;;;;;;;16.90;15.50;;;16.20;64.30;;;;;;6059405;23;20505;-71
2023/03/01 11:27:00;;;;;;;15.83;14.50;;;16.50;63.60;;;;;;6059521;23;20435;-72
2023/03/01 11:29:32;;;;;;;20.50;17.13;;;16.80;63.10;;;;;;6059972;23;20442;-72
2023/03/01 11:32:03;;;;;;;16.60;15.20;;;16.30;61.40;;;;;;6058685;23;20438;-72
2023/03/01 11:34:40;;;;;;;16.83;15.43;;;16.20;62.40;;;;;;6058988;23;20543;-72
2023/03/01 11:37:17;;;;;;;16.50;15.20;;;16.40;63.00;;;;;;6058511;23;20997;-72
2023/03/01 11:39:52;;;;;;;16.10;14.70;;;16.80;62.10;;;;;;6047387;23;20484;-72
2023/03/01 11:42:21;;;;;;;16.40;14.90;;;16.50;61.30;;;;;;6054615;23;20441;-78
2023/03/01 11:44:52;;;;;;;16.67;15.27;;;16.60;61.80;;;;;;6056449;23;20487;-73
2023/03/01 11:47:33;;;;;;;16.70;15.30;;;16.90;61.00;;;;;;6053050;23;20528;-73
2023/03/01 11:50:13;;;;;;;16.70;15.30;;;17.20;60.60;;;;;;6050506;23;20524;-72
2023/03/01 11:52:50;;;;;;;16.93;15.53;;;17.70;59.90;;;;;;6048431;23;20434;-73
2023/03/01 11:55:36;;;;;;;16.60;15.20;;;18.00;59.00;;;;;;6055663;23;20471;-72
2023/03/01 11:58:24;;;;;;;17.73;16.23;;;18.30;58.80;;;;;;6058035;23;20442;-72
2023/03/01 12:01:12;;;;;;;15.63;14.27;;;18.60;58.10;;;;;;6060017;23;20442;-73
2023/03/01 12:03:56;;;;;;;17.33;15.90;;;18.70;57.70;;;;;;6053696;23;20442;-72
2023/03/01 12:06:45;;;;;;;16.03;14.73;;;19.00;56.50;;;;;;6059125;23;20769;-73
2023/03/01 12:09:28;;;;;;;15.50;14.20;;;19.30;55.80;;;;;;6057543;23;20431;-72
2023/03/01 12:12:23;;;;;;;15.00;13.80;;;19.30;57.80;;;;;;6049878;23;20963;-71
2023/03/01 12:15:20;;;;;;;14.30;13.20;;;19.40;55.70;;;;;;6059534;23;20546;-71
2023/03/01 12:18:05;;;;;;;17.57;15.97;;;19.20;56.80;;;;;;6026069;23;20475;-69
2023/03/01 12:20:41;;;;;;;17.90;16.50;;;19.30;55.00;;;;;;6060248;23;20435;-68
2023/03/01 12:23:32;;;;;;;16.70;15.40;;;19.30;54.40;;;;;;6050993;23;20546;-68
2023/03/01 12:26:10;;;;;;;18.10;16.40;;;19.50;53.80;;;;;;6051387;23;20530;-68
2023/03/01 12:28:58;;;;;;;16.57;15.27;;;19.40;53.20;;;;;;6055487;23;20521;-69
2023/03/01 12:31:48;;;;;;;17.70;16.30;;;19.10;53.50;;;;;;6048123;23;21016;-68
2023/03/01 12:34:32;;;;;;;16.80;15.40;;;18.90;52.80;;;;;;6048753;23;20482;-69
2023/03/01 12:37:21;;;;;;;16.97;15.67;;;19.10;53.10;;;;;;6050025;23;20500;-68
2023/03/01 12:40:03;;;;;;;17.20;15.80;;;19.20;53.70;;;;;;6057448;23;20531;-68
2023/03/01 12:42:39;;;;;;;16.23;14.83;;;19.50;53.00;;;;;;6059639;23;20846;-68
2023/03/01 12:45:33;;;;;;;15.83;14.53;;;19.00;52.70;;;;;;6060558;23;20599;-68
2023/03/01 12:48:14;;;;;;;16.83;15.43;;;18.80;52.80;;;;;;6055447;23;20518;-68
2023/03/01 12:50:45;;;;;;;15.97;14.57;;;18.70;52.90;;;;;;6059872;23;20492;-68
2023/03/01 12:53:24;;;;;;;15.10;13.73;;;18.60;53.00;;;;;;6057846;23;20490;-68